Terminal Aerodrome Forecast
Issued by NWS

Home | Current Version | Previous Version | Text Only | Print | Product List | Glossary On
Versions: 1 2 3 4 5 6 7 8 9 10 11 12 13 14 15 16 17 18 19 20 21 22 23 24 25 26
000
FTAK31 PANC 012342
TAFAGK
TAF
PAGK 012342Z 0200/0224 17015KT P6SM SCT060 BKN080
     FM020600 18006KT P6SM BKN080 BKN120
     FM022100 18011KT P6SM BKN080=

USA.gov is the U.S. government's official web portal to all federal, state and local government web resources and services.